עמוד ראשי
METAR-TAF:

METAR-TAF

שדות תעופה :

וייק, ארצות הברית

קו רוחב: 19-17N, קו אורך: 166-39E, גובה: 4מטר

תצפית מזג אוויר נוכחית

הדו"ח נערך לפני 27דקות, בשעה 12:55 UTC
רוח 5קשר מכיוון מזרח
טמפרטורת 25 צלסיוס
לחות 83%
לחץ 1014 hPa
ראות: 16.1קילומטר
מעונן בגובה 9000רגל

METAR: PWAK 171255Z AUTO 09005KT 10SM OVC090 25/22 A2994 RMK AO2 SLP145 T02520217

זמן: 01:22 (13:22 UTC)

תחזית

הדו"ח נערך לפני 7 שעות ו 22דקות, בשעה 06:00 UTC
תחזית בתוקף מ 17 ב 06 UTC עד 18 ב 12 UTC
רוח 12קשר מכיוון מזרח
ראות 10 קילומטר או יותר
מעט עננים בגובה 2500רגל
עננים בינוניים בגובה 8500רגל

TAF: PWAK 170600Z 1706/1812 10012KT 9999 FEW025 BKN085 QNH2985INS TX30/1708Z TN23/1722Z FOR MIL USE ONLY

תצפיות ותחזיות מזג אוויר לגבי יותר מ- 4,000 שדות תעופה ברחבי העולם. דוחות METAR ו- TAF.

התחנות הזמינות מסומנות בנקודות צהובות ואדומות על גבי המפה.

העבר את העכבר לנקודה הצבעונית על מנת לראות את שם התחנה.

לאחר מכן, לחץ כדי לראות את תוכן ואת תחזיות מזג האוויר.

כדי לשנות את המפה: לחץ על הכפתורים הירוקים עם הפלוס השחור כדי להתקרב; על הכפתור הירוק עם המקף כדי להתרחק; או בחיצים הירוקים למפות סמוכות.


METAR-TAF: